Time;durP1;ratioP1;P1;durP2;ratioP2;P2;SDS_P1;SDS_P2;PMS_P1;PMS_P2;Temp;Humidity;BMP_temperature;BMP_pressure;BME280_temperature;BME280_humidity;BME280_pressure;Samples;Min_cycle;Max_cycle;Signal;HPM_P1;HPM_P2
2022/02/08 00:02:48;;;;;;;;;;;1.50;99.90;;;0.25;83.44;96932.41;10449414;28;2050;-68
2022/02/08 00:07:54;;;;;;;;;;;1.40;99.90;;;0.22;83.15;96938.91;10436902;28;1891;-68
2022/02/08 00:12:57;;;;;;;;;;;1.40;99.90;;;0.15;83.21;96937.16;10435631;28;1860;-68
2022/02/08 00:18:01;;;;;;;;;;;1.40;99.90;;;0.04;83.12;96950.81;10436003;28;1959;-70
2022/02/08 00:23:04;;;;;;;;;;;1.30;99.90;;;-0.06;83.69;96946.59;10441096;28;1907;-68
2022/02/08 00:28:07;;;;;;;;;;;1.20;99.90;;;-0.21;84.89;96956.28;10438962;28;1849;-68
2022/02/08 00:33:10;;;;;;;;;;;1.10;99.90;;;-0.28;85.65;96948.25;10422156;28;1917;-68
2022/02/08 00:38:13;;;;;;;;;;;1.00;99.90;;;-0.34;86.00;96948.94;10443003;28;2183;-69
2022/02/08 00:43:23;;;;;;;;;;;0.90;99.90;;;-0.45;87.09;96951.16;10420528;28;1973;-68
2022/02/08 00:48:30;;;;;;;;;;;0.80;99.90;;;-0.53;88.02;96944.13;10415151;28;1773;-67
2022/02/08 00:53:34;;;;;;;;;;;0.70;99.90;;;-0.64;87.87;96953.28;10435726;28;2062;-68
2022/02/08 00:58:37;;;;;;;;;;;0.80;99.90;;;-0.75;89.00;96956.31;10425338;28;2074;-67
2022/02/08 01:03:42;;;;;;;;;;;0.60;99.90;;;-0.77;89.29;96965.41;10423665;28;1906;-67
2022/02/08 01:08:45;;;;;;;;;;;0.40;99.90;;;-0.83;90.13;96966.91;10427089;28;2072;-67
2022/02/08 01:13:49;;;;;;;;;;;;;;;-0.91;90.70;96966.97;10434968;28;1637;-67
2022/02/08 01:18:55;;;;;;;;;;;0.30;99.90;;;-0.88;91.42;96974.56;10432965;28;1962;-68
2022/02/08 01:23:58;;;;;;;;;;;;;;;-0.96;91.96;96971.94;10413753;28;2052;-67
2022/02/08 01:29:16;;;;;;;;;;;;;;;-0.99;92.32;96970.47;10433812;28;2158;-68
2022/02/08 01:34:33;;;;;;;;;;;;;;;-1.05;92.87;96980.88;10430523;28;1898;-67
2022/02/08 01:39:44;;;;;;;;;;;0.20;99.90;;;-1.16;92.73;96984.72;10425324;28;1870;-67
2022/02/08 01:45:01;;;;;;;;;;;0.20;99.90;;;-1.11;92.42;96980.56;10454262;28;1989;-67
2022/02/08 01:50:11;;;;;;;;;;;0.20;99.90;;;-1.05;93.09;96972.97;10445658;28;1864;-67
2022/02/08 01:55:16;;;;;;;;;;;0.20;99.90;;;-1.01;92.12;96979.56;10447427;28;1850;-69
2022/02/08 02:00:19;;;;;;;;;;;-0.40;99.90;;;-0.89;91.89;96976.38;10430903;28;1846;-67
2022/02/08 02:05:22;;;;;;;;;;;0.30;99.90;;;-0.59;90.65;96979.97;10448317;28;1971;-68
2022/02/08 02:10:27;;;;;;;;;;;0.40;99.90;;;-0.32;89.33;96975.19;10437159;28;2110;-67
2022/02/08 02:15:32;;;;;;;;;;;0.60;99.90;;;-0.14;87.41;96969.63;10423342;28;1815;-69
2022/02/08 02:20:36;;;;;;;;;;;0.80;99.90;;;-0.02;86.27;96968.19;10437501;28;1969;-67
2022/02/08 02:25:39;;;;;;;;;;;1.00;99.90;;;0.06;85.96;96962.00;10447941;28;1991;-69
2022/02/08 02:30:43;;;;;;;;;;;1.00;99.90;;;0.16;85.27;96959.94;10419263;28;2000;-68
2022/02/08 02:35:48;;;;;;;;;;;1.10;99.90;;;0.16;84.54;96960.78;10423007;28;1984;-67
2022/02/08 02:40:52;;;;;;;;;;;1.20;99.90;;;0.31;83.32;96973.19;10439645;28;1863;-67
2022/02/08 02:45:58;;;;;;;;;;;1.30;99.90;;;0.29;83.23;96981.31;10419723;28;1918;-68
2022/02/08 02:51:01;;;;;;;;;;;1.40;99.90;;;0.35;83.28;96980.59;10423653;28;2011;-68
2022/02/08 02:56:04;;;;;;;;;;;1.40;99.90;;;0.42;82.08;96967.47;10433749;28;1868;-69
2022/02/08 03:01:22;;;;;;;;;;;1.40;99.90;;;0.41;81.73;96963.19;10416889;28;2315;-69
2022/02/08 03:17:39;;;;;;;;;;;1.60;99.90;;;0.58;80.07;96969.97;10437864;28;2023;-68
2022/02/08 03:22:43;;;;;;;;;;;1.60;99.90;;;0.65;79.85;96978.00;10442710;28;1785;-68
2022/02/08 03:27:46;;;;;;;;;;;1.70;99.90;;;0.68;80.34;96990.84;10440599;28;2123;-68
2022/02/08 03:32:49;;;;;;;;;;;1.80;99.90;;;0.70;79.63;96996.78;10423089;28;1868;-68
2022/02/08 03:37:59;;;;;;;;;;;1.70;99.90;;;0.76;79.52;96998.69;10426610;28;1976;-67
2022/02/08 03:43:13;;;;;;;;;;;1.80;99.90;;;0.78;79.06;96997.53;10439520;28;1904;-68
2022/02/08 03:48:19;;;;;;;;;;;1.80;99.90;;;0.82;79.48;96984.75;10438143;28;1627;-67
2022/02/08 03:53:22;;;;;;;;;;;1.80;99.90;;;0.84;78.60;96990.69;10438794;28;1809;-68
2022/02/08 03:58:25;;;;;;;;;;;1.90;99.90;;;0.88;78.77;96991.94;10428250;28;1890;-68
2022/02/08 04:03:31;;;;;;;;;;;1.90;99.90;;;0.87;78.74;96992.13;10423747;28;1914;-67
2022/02/08 04:08:35;;;;;;;;;;;1.90;99.90;;;0.96;78.98;96978.63;10439740;28;1968;-68
2022/02/08 04:13:46;;;;;;;;;;;2.00;99.90;;;1.02;78.25;96993.78;10423243;28;1849;-68
2022/02/08 04:18:55;;;;;;;;;;;2.00;99.90;;;0.99;77.59;96991.50;10443047;28;1805;-68
2022/02/08 04:34:54;;;;;;;;;;;2.10;99.90;;;1.11;77.03;96991.03;10424082;28;1839;-67
2022/02/08 04:40:14;;;;;;;;;;;2.10;99.90;;;1.16;76.42;97005.38;10439652;28;1801;-69
2022/02/08 04:45:26;;;;;;;;;;;2.20;99.90;;;1.16;76.44;96999.25;10439528;28;2084;-68
2022/02/08 04:50:31;;;;;;;;;;;2.20;99.90;;;1.21;75.89;96988.91;10420620;28;2146;-69
2022/02/08 04:56:40;;;;;;;;;;;2.20;99.90;;;1.02;75.83;97007.03;10597221;27;2065;-68
2022/02/08 05:02:00;;;;;;;;;;;2.10;99.90;;;1.01;76.34;97007.19;10598245;28;1725;-67
2022/02/08 05:44:32;;;;;;;;;;;2.30;99.90;;;1.40;74.16;96975.09;10510659;28;1837;-67
2022/02/08 05:49:42;;;;;;;;;;;2.40;99.90;;;1.38;73.23;96977.09;10518003;28;1912;-67
2022/02/08 05:54:46;;;;;;;;;;;2.40;99.90;;;1.43;72.83;96969.41;10516744;28;1913;-67
2022/02/08 05:59:50;;;;;;;;;;;2.40;99.90;;;1.46;72.46;96984.94;10493871;28;1896;-66
2022/02/08 06:04:53;;;;;;;;;;;2.50;99.90;;;1.54;71.79;96978.72;10501421;28;1892;-68
2022/02/08 06:09:57;;;;;;;;;;;2.50;99.90;;;1.54;71.82;96987.50;10488473;28;1833;-68
2022/02/08 06:15:06;;;;;;;;;;;2.60;99.90;;;1.51;71.56;96987.84;10470546;28;1918;-69
2022/02/08 06:20:09;;;;;;;;;;;2.60;99.90;;;1.62;71.72;96983.91;10469604;28;2048;-69
2022/02/08 06:25:15;;;;;;;;;;;2.60;99.90;;;1.60;71.56;96981.44;10468225;28;1932;-67
2022/02/08 06:30:18;;;;;;;;;;;2.60;99.90;;;1.64;70.72;96995.13;10495390;28;1872;-66
2022/02/08 06:35:24;;;;;;;;;;;2.70;99.90;;;1.66;71.38;97000.25;10490741;28;1914;-69
2022/02/08 06:40:31;;;;;;;;;;;2.70;99.90;;;1.72;71.26;97000.34;10469141;28;1906;-69
2022/02/08 06:45:35;;;;;;;;;;;2.70;99.90;;;1.72;71.47;97007.44;10483379;28;1864;-69
2022/02/08 06:50:39;;;;;;;;;;;2.80;99.90;;;1.78;70.79;96994.28;10472631;28;1837;-69
2022/02/08 06:55:44;;;;;;;;;;;2.80;99.90;;;1.83;71.13;96996.34;10487146;28;1918;-69
2022/02/08 07:00:49;;;;;;;;;;;2.80;99.90;;;1.85;71.22;97010.25;10464740;28;2022;-69
2022/02/08 07:05:52;;;;;;;;;;;2.90;99.90;;;1.88;70.80;97015.97;10488888;28;1955;-68
2022/02/08 07:10:55;;;;;;;;;;;2.90;99.90;;;2.05;69.64;97019.22;10485057;28;1917;-69
2022/02/08 07:15:58;;;;;;;;;;;2.90;99.90;;;2.03;69.97;97015.91;10498647;28;1957;-68
2022/02/08 07:21:04;;;;;;;;;;;;;;;2.12;68.23;97028.06;10497223;28;1794;-69
2022/02/08 07:26:09;;;;;;;;;;;;;;;2.31;68.50;97028.44;10479835;28;1849;-70
2022/02/08 07:31:16;;;;;;;;;;;;;;;2.36;68.57;97021.56;10486977;28;1783;-68
2022/02/08 07:36:37;;;;;;;;;;;;;;;2.40;67.45;97022.78;10466779;28;1883;-69
2022/02/08 07:41:42;;;;;;;;;;;;;;;2.66;67.28;97024.81;10483816;28;1909;-67
2022/02/08 07:46:47;;;;;;;;;;;;;;;2.97;66.88;97020.94;10476319;28;1872;-68
2022/02/08 07:51:50;;;;;;;;;;;3.80;99.90;;;3.31;65.43;97030.78;10463031;28;2061;-70
2022/02/08 07:56:53;;;;;;;;;;;4.00;99.90;;;3.23;64.40;97031.72;10485390;28;1914;-71
2022/02/08 08:01:56;;;;;;;;;;;4.10;99.90;;;3.39;63.31;97029.78;10483511;28;1954;-68
2022/02/08 08:07:00;;;;;;;;;;;4.30;99.90;;;3.52;63.17;97040.47;10457948;28;1936;-69
2022/02/08 08:12:04;;;;;;;;;;;4.30;99.90;;;3.69;61.74;97020.50;10454426;28;3194;-69
2022/02/08 08:17:36;;;;;;;;;;;;;;;3.86;60.28;97014.81;10458098;28;1906;-70
2022/02/08 08:22:37;;;;;;;;;;;4.70;99.90;;;3.64;59.87;97011.47;10460144;28;1806;-72
2022/02/08 08:27:41;;;;;;;;;;;4.60;99.90;;;4.04;59.30;97002.56;10484426;28;1941;-70
2022/02/08 08:32:44;;;;;;;;;;;4.80;99.90;;;4.16;57.27;97009.97;10489551;28;2389;-68
2022/02/08 08:37:50;;;;;;;;;;;4.90;99.90;;;4.09;56.91;97012.63;10474770;28;1953;-68
2022/02/08 08:43:10;;;;;;;;;;;5.00;99.90;;;4.25;56.91;97022.84;10459068;28;1862;-68
2022/02/08 08:53:59;;;;;;;;;;;;;;;4.38;54.35;97018.56;10459950;28;2269;-71
2022/02/08 08:59:05;;;;;;;;;;;;;;;4.61;51.70;97021.66;10457734;28;1949;-68
2022/02/08 09:04:08;;;;;;;;;;;;;;;4.54;51.01;97008.34;10462693;28;1830;-68
2022/02/08 09:09:16;;;;;;;;;;;;;;;4.83;50.74;97001.75;10473781;28;1933;-68
2022/02/08 09:14:25;;;;;;;;;;;6.10;99.90;;;5.23;49.31;96995.53;10476779;28;1906;-70
2022/02/08 09:19:50;;;;;;;;;;;5.60;99.90;;;5.06;48.09;96989.84;10454322;28;2021;-69
2022/02/08 09:25:04;;;;;;;;;;;5.90;99.90;;;5.31;47.84;96993.44;10452179;28;1876;-69
2022/02/08 09:30:11;;;;;;;;;;;6.10;99.90;;;5.48;46.08;96993.00;10457872;28;1889;-69
2022/02/08 09:35:14;;;;;;;;;;;6.20;99.90;;;5.40;47.07;96981.50;10477224;28;1930;-68
2022/02/08 09:40:18;;;;;;;;;;;6.30;99.90;;;5.35;45.19;96984.00;10477479;28;1851;-69
2022/02/08 09:45:23;;;;;;;;;;;;;;;5.84;43.67;96990.53;10471163;28;1886;-68
2022/02/08 09:50:28;;;;;;;;;;;5.90;99.90;;;5.70;42.48;96988.97;10472115;28;2207;-67
2022/02/08 09:55:36;;;;;;;;;;;6.40;99.90;;;5.27;43.42;96997.56;10482990;28;1997;-69
2022/02/08 10:00:39;;;;;;;;;;;6.30;99.90;;;5.20;43.40;96980.75;10467382;28;2007;-67
2022/02/08 10:05:42;;;;;;;;;;;6.10;99.90;;;5.32;42.57;96992.41;10493971;28;1895;-69
2022/02/08 10:10:46;;;;;;;;;;;6.10;99.90;;;5.48;42.72;97004.47;10469760;28;1869;-69
2022/02/08 10:26:41;;;;;;;;;;;;;;;6.21;41.05;96994.25;10457704;28;1892;-68
2022/02/08 10:32:04;;;;;;;;;;;;;;;6.67;39.59;96985.03;10483795;28;1888;-68
2022/02/08 10:42:29;;;;;;;;;;;;;;;6.29;40.73;96969.13;10459280;28;2156;-68
2022/02/08 10:47:32;;;;;;;;;;;;;;;6.18;43.35;96967.19;10484046;28;2205;-70
2022/02/08 10:52:39;;;;;;;;;;;;;;;6.29;47.19;96962.97;10463158;28;2038;-69
2022/02/08 10:57:53;;;;;;;;;;;;;;;6.22;46.23;96957.69;10485723;28;2012;-68
2022/02/08 11:02:59;;;;;;;;;;;;;;;6.40;46.64;96949.72;10482421;28;2293;-68
2022/02/08 11:13:35;;;;;;;;;;;;;;;6.43;42.11;96943.16;10460981;28;2003;-68
2022/02/08 11:18:44;;;;;;;;;;;;;;;6.76;41.17;96938.31;10475799;28;1884;-67
2022/02/08 11:23:59;;;;;;;;;;;7.50;99.90;;;6.93;40.13;96925.16;10479972;28;2196;-70
2022/02/08 11:29:02;;;;;;;;;;;7.30;99.90;;;6.68;39.66;96935.09;10468795;28;2149;-67
2022/02/08 11:39:03;;;;;;;;;;;7.60;99.90;;;6.65;39.27;96923.00;10469337;28;2122;-68
2022/02/08 11:40:26;;;;;;;;;;;7.50;99.90;;;6.97;38.43;96910.34;10473650;28;2342;-66
2022/02/08 11:51:07;;;;;;;;;;;;;;;7.22;37.33;96842.59;10498303;28;2029;-70
2022/02/08 11:56:43;;;;;;;;;;;;;;;7.20;37.55;96901.66;10487246;28;1890;-68
2022/02/08 12:07:24;;;;;;;;;;;;;;;7.20;38.42;96903.50;10504581;28;1981;-68
2022/02/08 12:13:01;;;;;;;;;;;;;;;7.55;37.86;96904.47;10503713;28;1880;-68
2022/02/08 12:34:45;;;;;;;;;;;;;;;7.39;36.94;96897.09;10486668;28;1923;-70
2022/02/08 12:51:19;;;;;;;;;;;;;;;8.22;35.16;96884.75;10505448;28;1841;-69
2022/02/08 12:56:16;;;;;;;;;;;;;;;8.44;33.65;96869.75;10505688;28;1975;-69
2022/02/08 13:01:32;;;;;;;;;;;;;;;8.61;32.97;96865.34;10489349;28;1819;-68
2022/02/08 14:16:38;;;;;;;;;;;9.60;92.90;;;9.05;34.37;96846.97;10497909;28;1913;-68
2022/02/08 14:21:54;;;;;;;;;;;9.70;91.40;;;8.93;35.73;96832.78;10495870;28;1824;-68
2022/02/08 14:32:24;;;;;;;;;;;9.90;91.60;;;8.74;35.10;96821.38;10506742;28;1918;-68
2022/02/08 15:09:48;;;;;;;;;;;9.00;92.40;;;8.31;36.13;96821.75;10409571;28;1883;-68
2022/02/08 15:14:54;;;;;;;;;;;9.10;92.10;;;8.51;35.89;96816.03;10509527;28;1987;-69
2022/02/08 15:20:01;;;;;;;;;;;9.30;91.80;;;8.54;36.70;96821.78;10507960;28;1898;-69
2022/02/08 15:25:09;;;;;;;;;;;9.40;91.80;;;8.64;37.24;96827.31;10516965;28;1896;-69
2022/02/08 15:30:12;;;;;;;;;;;9.50;92.30;;;8.56;37.09;96824.22;10516210;28;1840;-70
2022/02/08 15:35:16;;;;;;;;;;;9.40;92.30;;;8.58;36.47;96820.22;10506081;28;2256;-70
2022/02/08 15:40:20;;;;;;;;;;;9.50;92.10;;;8.46;37.40;96822.13;10492684;28;2094;-68
2022/02/08 15:45:27;;;;;;;;;;;9.40;92.40;;;8.36;38.28;96825.38;10511117;28;1987;-68
2022/02/08 15:50:38;;;;;;;;;;;9.30;93.20;;;8.29;39.31;96830.03;10500939;28;2014;-69
2022/02/08 15:55:51;;;;;;;;;;;9.30;93.80;;;8.16;38.55;96840.16;10507517;28;1906;-68
2022/02/08 16:17:17;;;;;;;;;;;8.70;92.80;;;7.45;37.95;96845.34;10449572;28;1983;-69
2022/02/08 16:27:50;;;;;;;;;;;8.40;92.40;;;7.31;37.75;96851.91;10493850;28;1754;-69
2022/02/08 16:33:19;;;;;;;;;;;8.20;91.70;;;7.20;38.84;96860.72;10489842;28;1828;-70
2022/02/08 16:49:24;;;;;;;;;;;8.00;93.70;;;6.94;41.05;96872.56;10504649;28;1849;-70
2022/02/08 16:54:40;;;;;;;;;;;8.00;94.60;;;6.89;42.03;96878.56;10495314;28;1983;-70
2022/02/08 16:59:45;;;;;;;;;;;8.10;95.60;;;6.80;42.46;96871.88;10521992;28;1869;-69
2022/02/08 17:04:48;;;;;;;;;;;8.10;96.20;;;6.72;42.21;96877.50;10507294;28;1887;-70
2022/02/08 17:09:56;;;;;;;;;;;7.90;96.40;;;6.55;43.50;96871.91;10488324;28;1807;-70
2022/02/08 17:15:22;;;;;;;;;;;7.80;96.70;;;6.28;44.61;96876.72;10489136;28;1910;-71
2022/02/08 17:47:40;;;;;;;;;;;6.80;99.90;;;5.07;49.90;96896.34;10515089;28;1774;-70
2022/02/08 17:52:44;;;;;;;;;;;6.50;99.90;;;4.94;50.20;96895.56;10510004;28;1838;-70
2022/02/08 17:57:47;;;;;;;;;;;6.30;99.90;;;4.77;51.06;96889.88;10499718;28;1977;-69
2022/02/08 18:02:50;;;;;;;;;;;6.20;99.90;;;4.61;52.13;96899.97;10493446;28;2006;-71
2022/02/08 18:07:54;;;;;;;;;;;6.00;99.90;;;4.52;52.51;96901.22;10513305;28;1780;-70
2022/02/08 18:12:57;;;;;;;;;;;5.90;99.90;;;4.51;53.00;96901.41;10518641;28;1884;-70
2022/02/08 18:18:06;;;;;;;;;;;5.80;99.90;;;4.36;53.76;96911.47;10494634;28;1938;-70
2022/02/08 19:12:11;;;;;;;;;;;5.20;99.90;;;3.92;59.97;96928.88;10492244;28;2201;-71
2022/02/08 19:17:36;;;;;;;;;;;5.20;99.90;;;3.89;59.61;96930.13;10485942;28;1910;-70
2022/02/08 19:22:39;;;;;;;;;;;5.20;99.90;;;3.83;59.69;96935.44;10511753;28;1825;-71
2022/02/08 19:27:43;;;;;;;;;;;5.10;99.90;;;3.76;60.19;96952.19;10512702;28;1798;-70
2022/02/08 19:32:46;;;;;;;;;;;5.10;99.90;;;3.66;60.28;96950.94;10494303;28;1689;-69
2022/02/08 19:37:49;;;;;;;;;;;5.10;99.90;;;3.55;60.74;96949.66;10492095;28;2010;-69
2022/02/08 19:42:52;;;;;;;;;;;5.00;99.90;;;3.36;61.20;96945.09;10510675;28;1512;-69
2022/02/08 19:47:55;;;;;;;;;;;4.80;99.90;;;3.29;60.62;96947.75;10513340;28;1437;-69
2022/02/08 19:52:58;;;;;;;;;;;4.50;99.90;;;3.24;61.56;96958.13;10498240;28;1356;-69
2022/02/08 19:58:08;;;;;;;;;;;4.40;99.90;;;3.10;61.53;96965.25;10503795;28;1973;-69
2022/02/08 20:03:11;;;;;;;;;;;4.50;99.90;;;3.00;61.74;96970.09;10492888;28;1501;-69
2022/02/08 20:08:14;;;;;;;;;;;4.30;99.90;;;2.89;62.23;96968.81;10496004;28;1481;-68
2022/02/08 20:13:17;;;;;;;;;;;4.20;99.90;;;2.83;62.26;96974.09;10522156;28;1429;-69
2022/02/08 20:18:21;;;;;;;;;;;4.10;99.90;;;2.75;61.86;96974.25;10540176;28;1891;-69
2022/02/08 20:23:28;;;;;;;;;;;;;;;2.62;63.17;96980.28;10537774;28;1504;-69
2022/02/08 20:28:37;;;;;;;;;;;;;;;2.58;62.42;96979.84;10520984;28;1435;-68
2022/02/08 20:33:40;;;;;;;;;;;;;;;2.56;62.73;96986.38;10508547;28;1421;-69
2022/02/08 20:38:45;;;;;;;;;;;;;;;2.51;62.24;96981.63;10520139;28;1918;-68
2022/02/08 20:43:49;;;;;;;;;;;;;;;2.48;62.69;96983.84;10494525;28;1473;-69
2022/02/08 20:48:52;;;;;;;;;;;;;;;2.41;62.03;96989.94;10515069;28;1432;-68
2022/02/08 20:53:59;;;;;;;;;;;;;;;2.43;61.81;96992.41;10496565;28;1807;-68
2022/02/08 20:59:08;;;;;;;;;;;;;;;2.44;61.37;97002.00;10499118;28;1922;-68
2022/02/08 21:04:25;;;;;;;;;;;3.50;99.90;;;2.44;60.66;97002.81;10486794;28;1588;-69
2022/02/08 21:09:32;;;;;;;;;;;3.50;99.90;;;2.66;59.35;97008.06;10498704;28;1429;-69
2022/02/08 21:14:35;;;;;;;;;;;3.50;99.90;;;2.63;59.02;97000.50;10492260;28;1469;-68
2022/02/08 21:19:38;;;;;;;;;;;3.70;99.90;;;2.69;57.73;97005.88;10481634;28;2032;-69
2022/02/08 21:24:42;;;;;;;;;;;3.70;99.90;;;2.59;58.29;97007.22;10509589;28;1465;-69
2022/02/08 21:29:54;;;;;;;;;;;3.70;99.90;;;2.52;57.06;96996.56;10484730;28;1468;-69
2022/02/08 21:56:16;;;;;;;;;;;3.80;99.90;;;2.31;56.98;96993.94;10510936;28;1910;-69
2022/02/08 22:01:20;;;;;;;;;;;3.70;99.90;;;2.31;57.02;96999.25;10511629;28;1888;-68
2022/02/08 22:06:23;;;;;;;;;;;3.70;99.90;;;2.22;57.54;96989.75;10498727;28;1843;-68
2022/02/08 22:17:13;;;;;;;;;;;3.60;99.90;;;2.25;57.56;96984.09;10493926;28;1957;-68
2022/02/08 22:22:25;;;;;;;;;;;3.60;99.90;;;2.16;58.62;96994.84;10496995;28;1940;-68
2022/02/08 22:27:36;;;;;;;;;;;3.60;99.90;;;2.07;59.67;97003.94;10496076;28;1781;-69
2022/02/08 22:32:41;;;;;;;;;;;3.30;99.90;;;2.08;59.62;97005.56;10492406;28;1854;-69
2022/02/08 22:37:50;;;;;;;;;;;3.50;99.90;;;2.03;60.63;97009.78;10496708;28;1902;-68
2022/02/08 22:43:03;;;;;;;;;;;3.30;99.90;;;2.10;59.91;97018.63;10514653;28;1836;-68
2022/02/08 22:48:07;;;;;;;;;;;3.40;99.90;;;2.09;60.65;97007.19;10499488;28;1903;-69
2022/02/08 22:53:10;;;;;;;;;;;3.30;99.90;;;2.00;61.47;96991.63;10498466;28;1842;-69
2022/02/08 22:58:13;;;;;;;;;;;3.30;99.90;;;1.91;62.80;96993.59;10510975;28;1977;-68
2022/02/08 23:03:16;;;;;;;;;;;3.20;99.90;;;1.87;63.79;96981.72;10515065;28;1874;-67
2022/02/08 23:08:19;;;;;;;;;;;3.10;99.90;;;1.86;64.32;96972.13;10490774;28;1944;-68
2022/02/08 23:13:31;;;;;;;;;;;3.10;99.90;;;1.80;64.68;96978.19;10504151;28;1811;-68
2022/02/08 23:39:56;;;;;;;;;;;6.80;99.90;;;1.22;69.23;96945.56;10493546;28;1925;-69
2022/02/08 23:44:59;;;;;;;;;;;2.60;99.90;;;1.21;69.86;96957.13;10507442;28;2288;-68
2022/02/08 23:50:05;;;;;;;;;;;2.40;99.90;;;1.20;69.87;96956.31;10516247;28;1713;-68
2022/02/08 23:55:17;;;;;;;;;;;2.40;99.90;;;1.14;70.28;96964.16;10513789;28;1885;-68
